Time;durP1;ratioP1;P1;durP2;ratioP2;P2;SDS_P1;SDS_P2;PMS_P1;PMS_P2;Temp;Humidity;BMP_temperature;BMP_pressure;BME280_temperature;BME280_humidity;BME280_pressure;Samples;Min_cycle;Max_cycle;Signal;HPM_P1;HPM_P2
2023/04/16 00:01:53;;;;;;;1.95;1.10;;;15.30;68.50;;;;;;10288688;28;20676;-54
2023/04/16 00:06:54;;;;;;;2.92;1.05;;;15.30;68.60;;;;;;10288921;28;20050;-56
2023/04/16 00:11:55;;;;;;;4.15;0.90;;;15.30;68.50;;;;;;10288281;28;20015;-56
2023/04/16 00:16:56;;;;;;;2.20;0.90;;;15.30;68.50;;;;;;10288391;28;20023;-54
2023/04/16 00:21:57;;;;;;;1.65;0.85;;;15.30;68.60;;;;;;10288112;28;20039;-55
2023/04/16 00:26:57;;;;;;;2.75;1.45;;;15.30;68.60;;;;;;10288229;28;20025;-55
2023/04/16 00:31:58;;;;;;;1.73;0.73;;;15.20;68.50;;;;;;10287689;28;20078;-53
2023/04/16 00:36:59;;;;;;;1.38;0.77;;;15.20;68.50;;;;;;10287671;28;20027;-55
2023/04/16 00:42:00;;;;;;;1.35;0.70;;;15.20;68.50;;;;;;10287102;28;20041;-51
2023/04/16 00:47:02;;;;;;;3.63;1.15;;;15.20;68.50;;;;;;10287446;28;20513;-53
2023/04/16 00:52:03;;;;;;;2.75;0.90;;;15.20;68.50;;;;;;10287339;28;20085;-55
2023/04/16 00:57:05;;;;;;;1.85;1.63;;;15.20;68.50;;;;;;10269456;28;20066;-51
2023/04/16 01:02:06;;;;;;;1.38;0.75;;;15.20;68.50;;;;;;10286444;28;20058;-54
2023/04/16 01:07:06;;;;;;;2.25;0.90;;;15.20;68.50;;;;;;10285894;28;20027;-55
2023/04/16 01:12:07;;;;;;;2.40;1.33;;;15.20;68.50;;;;;;10286128;28;20015;-55
2023/04/16 01:17:08;;;;;;;1.83;0.82;;;15.20;68.50;;;;;;10285849;28;20347;-55
2023/04/16 01:22:08;;;;;;;5.50;1.80;;;15.20;68.60;;;;;;10285848;28;20113;-56
2023/04/16 01:27:09;;;;;;;1.77;0.90;;;15.20;68.50;;;;;;10268331;28;20190;-55
2023/04/16 01:32:10;;;;;;;3.45;1.42;;;15.10;68.50;;;;;;10285844;28;20023;-56
2023/04/16 01:37:11;;;;;;;3.97;1.55;;;15.10;68.50;;;;;;10284835;28;20019;-55
2023/04/16 01:42:12;;;;;;;2.22;1.17;;;15.20;68.50;;;;;;10285101;28;20081;-52
2023/04/16 01:47:13;;;;;;;4.43;1.42;;;15.10;68.50;;;;;;10284891;28;20564;-54
2023/04/16 01:52:14;;;;;;;2.35;1.42;;;15.20;68.50;;;;;;10284913;28;20135;-55
2023/04/16 01:57:14;;;;;;;3.20;1.25;;;15.10;68.40;;;;;;10284886;28;20094;-54
2023/04/16 02:02:15;;;;;;;2.58;1.20;;;15.20;68.50;;;;;;10284212;28;20123;-52
2023/04/16 02:07:16;;;;;;;3.30;1.42;;;15.20;68.50;;;;;;10284256;28;20015;-51
2023/04/16 02:12:17;;;;;;;4.05;1.63;;;15.10;68.40;;;;;;10284252;28;20466;-51
2023/04/16 02:17:18;;;;;;;3.90;2.30;;;15.10;68.50;;;;;;10283181;28;20553;-53
2023/04/16 02:22:18;;;;;;;2.25;1.30;;;15.10;68.50;;;;;;10284202;28;20105;-55
2023/04/16 02:27:19;;;;;;;2.78;1.70;;;15.10;68.40;;;;;;10283699;28;20018;-55
2023/04/16 02:32:21;;;;;;;2.85;1.52;;;15.10;68.50;;;;;;10283590;28;20134;-52
2023/04/16 02:37:22;;;;;;;3.88;1.30;;;15.10;68.50;;;;;;10283308;28;20531;-52
2023/04/16 02:42:22;;;;;;;4.45;2.05;;;15.10;68.50;;;;;;10282938;28;20041;-55
2023/04/16 02:47:23;;;;;;;3.33;1.63;;;15.10;68.60;;;;;;10283274;28;20066;-53
2023/04/16 02:52:24;;;;;;;4.57;1.52;;;15.10;68.60;;;;;;10283071;28;20058;-54
2023/04/16 02:57:24;;;;;;;3.40;1.48;;;15.10;68.50;;;;;;10283241;28;20470;-54
2023/04/16 03:02:26;;;;;;;3.55;1.75;;;15.10;68.50;;;;;;10271856;28;20066;-54
2023/04/16 03:07:26;;;;;;;5.00;2.33;;;15.10;68.50;;;;;;10283070;28;20073;-54
2023/04/16 03:12:27;;;;;;;3.97;2.20;;;15.10;68.50;;;;;;10282887;28;20109;-55
2023/04/16 03:17:28;;;;;;;3.20;1.58;;;15.10;68.50;;;;;;10282589;28;20062;-55
2023/04/16 03:22:30;;;;;;;3.75;2.05;;;15.00;68.50;;;;;;10282782;28;20055;-54
2023/04/16 03:27:31;;;;;;;3.13;1.73;;;15.00;68.50;;;;;;10284203;28;20106;-54
2023/04/16 03:32:31;;;;;;;7.60;2.78;;;15.00;68.50;;;;;;10272898;28;20065;-54
2023/04/16 03:37:33;;;;;;;3.80;1.45;;;15.00;68.50;;;;;;10272180;28;20031;-54
2023/04/16 03:42:34;;;;;;;3.60;2.03;;;15.00;68.60;;;;;;10290332;28;20493;-51
2023/04/16 03:47:34;;;;;;;3.53;2.17;;;15.00;68.50;;;;;;10289406;28;20209;-53
2023/04/16 03:52:35;;;;;;;4.47;2.00;;;15.10;68.60;;;;;;10289034;28;20077;-54
2023/04/16 03:57:36;;;;;;;4.68;2.55;;;15.30;67.90;;;;;;10289184;28;20102;-54
2023/04/16 04:02:36;;;;;;;5.50;2.85;;;15.60;66.80;;;;;;10289112;28;20051;-55
2023/04/16 04:07:37;;;;;;;4.35;2.53;;;15.90;65.80;;;;;;10289424;28;20031;-55
2023/04/16 04:12:38;;;;;;;3.97;2.30;;;16.30;64.90;;;;;;10288510;28;20023;-56
2023/04/16 04:17:39;;;;;;;3.92;2.60;;;16.50;64.20;;;;;;10288435;28;20370;-55
2023/04/16 04:22:39;;;;;;;3.80;2.10;;;16.60;63.90;;;;;;10287017;28;20504;-55
2023/04/16 04:27:40;;;;;;;3.53;1.75;;;16.60;63.90;;;;;;10285710;28;20019;-54
2023/04/16 04:32:41;;;;;;;4.75;2.63;;;16.60;64.10;;;;;;10285629;28;20117;-53
2023/04/16 04:37:41;;;;;;;5.45;2.63;;;16.50;64.40;;;;;;10286857;28;20110;-56
2023/04/16 04:42:42;;;;;;;6.18;2.38;;;16.40;64.60;;;;;;10286020;28;20626;-55
2023/04/16 04:47:42;;;;;;;6.70;3.20;;;16.40;65.00;;;;;;10280428;28;20074;-55
2023/04/16 04:52:43;;;;;;;6.45;3.38;;;16.30;66.00;;;;;;10284493;28;20114;-55
2023/04/16 04:57:44;;;;;;;6.28;2.78;;;16.50;65.90;;;;;;10284606;28;20154;-56
2023/04/16 05:02:46;;;;;;;6.88;3.13;;;16.50;66.20;;;;;;10285648;28;20054;-57
2023/04/16 05:07:46;;;;;;;10.43;3.38;;;16.50;67.30;;;;;;10286445;28;20019;-52
2023/04/16 05:12:47;;;;;;;9.45;3.35;;;16.50;67.90;;;;;;10286004;28;20019;-55
2023/04/16 05:17:48;;;;;;;15.40;4.28;;;16.50;68.70;;;;;;10285977;28;20074;-56
2023/04/16 05:22:50;;;;;;;9.20;3.45;;;16.40;69.00;;;;;;10285810;28;20065;-57
2023/04/16 05:27:50;;;;;;;8.38;3.83;;;16.40;69.10;;;;;;10268157;28;20027;-57
2023/04/16 05:32:51;;;;;;;11.70;4.03;;;16.40;69.80;;;;;;10247672;28;20129;-57
2023/04/16 05:37:52;;;;;;;8.65;3.10;;;16.30;69.50;;;;;;10285011;28;20129;-57
2023/04/16 05:42:52;;;;;;;11.85;3.10;;;16.30;69.40;;;;;;10284527;28;20142;-56
2023/04/16 05:47:53;;;;;;;8.63;3.65;;;16.20;69.40;;;;;;10281572;28;20730;-57
2023/04/16 05:52:54;;;;;;;21.05;6.22;;;16.00;69.60;;;;;;10247348;28;20155;-57
2023/04/16 05:57:55;;;;;;;36.63;8.20;;;15.90;70.10;;;;;;10282545;28;20141;-57
2023/04/16 06:02:55;;;;;;;27.45;6.15;;;15.80;70.20;;;;;;10281519;28;20173;-53
2023/04/16 06:07:56;;;;;;;36.03;9.75;;;15.80;70.30;;;;;;10282705;28;20065;-58
2023/04/16 06:12:57;;;;;;;19.20;5.70;;;15.90;70.80;;;;;;10266218;28;20042;-56
2023/04/16 06:17:57;;;;;;;26.67;5.68;;;15.80;70.60;;;;;;10283111;28;20161;-49
2023/04/16 06:22:58;;;;;;;25.92;7.05;;;15.80;70.90;;;;;;10278157;28;20030;-56
2023/04/16 06:27:58;;;;;;;33.47;8.05;;;15.80;71.10;;;;;;10279075;28;20045;-55
2023/04/16 06:32:59;;;;;;;23.10;6.40;;;15.80;71.00;;;;;;10278495;28;20051;-54
2023/04/16 06:38:00;;;;;;;22.23;6.35;;;15.90;71.60;;;;;;10278776;28;20500;-56
2023/04/16 06:43:01;;;;;;;16.38;5.93;;;15.80;71.00;;;;;;10278543;28;20125;-54
2023/04/16 06:48:02;;;;;;;21.60;7.00;;;15.90;71.10;;;;;;10279130;28;20074;-56
2023/04/16 06:53:03;;;;;;;20.63;6.38;;;15.90;71.30;;;;;;10264088;28;20470;-54
2023/04/16 06:58:03;;;;;;;22.58;6.10;;;15.90;71.10;;;;;;10281532;28;20043;-57
2023/04/16 07:03:04;;;;;;;19.73;6.13;;;15.90;71.30;;;;;;10283329;28;20081;-52
2023/04/16 07:08:05;;;;;;;21.55;5.85;;;15.90;71.20;;;;;;10271958;28;20154;-56
2023/04/16 07:13:05;;;;;;;15.40;6.40;;;15.80;71.50;;;;;;10288509;28;20348;-53
2023/04/16 07:18:06;;;;;;;18.20;6.28;;;15.80;71.50;;;;;;10288901;28;20050;-55
2023/04/16 07:23:07;;;;;;;26.42;7.07;;;15.80;71.30;;;;;;10287822;28;20117;-54
2023/04/16 07:28:08;;;;;;;15.63;5.57;;;15.80;71.50;;;;;;10270327;28;20470;-57
2023/04/16 07:33:08;;;;;;;17.48;5.85;;;15.80;71.80;;;;;;10286698;28;20106;-55
2023/04/16 07:38:09;;;;;;;20.55;6.78;;;15.80;71.70;;;;;;10269577;28;20031;-54
2023/04/16 07:43:10;;;;;;;16.52;5.45;;;15.80;71.50;;;;;;10288626;28;20192;-55
2023/04/16 07:48:11;;;;;;;18.42;5.35;;;15.80;71.50;;;;;;10271152;28;20047;-54
2023/04/16 07:53:11;;;;;;;19.35;6.68;;;15.90;71.20;;;;;;10284843;28;20438;-56
2023/04/16 07:58:12;;;;;;;15.60;5.45;;;15.90;71.80;;;;;;10288397;28;20158;-57
2023/04/16 08:03:14;;;;;;;14.02;5.30;;;15.80;71.80;;;;;;10286714;28;20549;-56
2023/04/16 08:08:15;;;;;;;11.25;4.50;;;15.90;71.80;;;;;;10285419;28;20905;-55
2023/04/16 08:13:16;;;;;;;16.20;5.53;;;15.80;72.20;;;;;;10286398;28;20027;-55
2023/04/16 08:18:18;;;;;;;13.52;6.20;;;15.70;72.30;;;;;;10270553;28;20451;-56
2023/04/16 08:23:19;;;;;;;17.63;5.25;;;15.70;72.60;;;;;;10286187;28;20046;-57
2023/04/16 08:28:20;;;;;;;18.13;5.35;;;15.70;72.80;;;;;;10286278;28;20479;-57
2023/04/16 08:33:21;;;;;;;16.63;5.97;;;15.70;72.80;;;;;;10285481;28;20174;-57
2023/04/16 08:38:21;;;;;;;16.83;5.93;;;15.70;72.70;;;;;;10287140;28;20054;-54
2023/04/16 08:43:23;;;;;;;19.95;6.90;;;15.70;72.90;;;;;;10268062;28;20470;-56
2023/04/16 08:48:24;;;;;;;10.93;4.82;;;15.80;72.90;;;;;;10245381;28;20051;-57
2023/04/16 08:53:39;;;;;;;16.75;6.45;;;15.70;72.50;;;;;;10255722;28;20532;-57
2023/04/16 08:58:40;;;;;;;21.40;7.32;;;15.70;72.70;;;;;;10241205;28;20676;-57
2023/04/16 09:03:41;;;;;;;18.40;6.85;;;15.70;72.70;;;;;;10240205;28;20693;-57
2023/04/16 09:08:44;;;;;;;21.05;5.55;;;15.70;72.70;;;;;;10245944;28;20371;-53
2023/04/16 09:13:46;;;;;;;13.38;5.00;;;15.70;72.70;;;;;;10245532;28;20051;-56
2023/04/16 09:18:46;;;;;;;26.90;7.72;;;15.60;72.10;;;;;;10244415;29;20034;-57
2023/04/16 09:23:47;;;;;;;14.55;6.32;;;15.60;72.00;;;;;;10227107;28;20059;-55
2023/04/16 09:28:50;;;;;;;16.98;7.45;;;15.60;72.30;;;;;;10222899;28;20383;-57
2023/04/16 09:34:00;;;;;;;18.30;6.20;;;15.60;72.00;;;;;;10238823;28;20383;-54
2023/04/16 09:39:01;;;;;;;20.63;6.90;;;15.60;71.80;;;;;;10244745;28;20038;-52
2023/04/16 09:44:03;;;;;;;13.38;6.18;;;15.60;71.70;;;;;;10244570;28;20027;-52
2023/04/16 09:49:16;;;;;;;16.50;6.47;;;15.60;71.70;;;;;;10283306;28;20046;-50
2023/04/16 09:54:18;;;;;;;12.88;5.00;;;15.60;71.60;;;;;;10283215;28;20050;-54
2023/04/16 09:59:20;;;;;;;26.08;8.68;;;15.70;71.40;;;;;;10265528;28;20352;-55
2023/04/16 10:04:21;;;;;;;15.43;6.45;;;15.70;71.20;;;;;;10265669;28;20046;-53
2023/04/16 10:09:22;;;;;;;16.38;6.80;;;15.70;71.30;;;;;;10282659;28;20102;-52
2023/04/16 10:14:22;;;;;;;13.30;7.60;;;15.70;71.20;;;;;;10281300;28;20051;-54
2023/04/16 10:19:25;;;;;;;22.75;8.15;;;15.70;71.20;;;;;;10263907;28;20537;-55
2023/04/16 10:24:28;;;;;;;12.85;6.13;;;15.70;71.30;;;;;;10263798;28;20061;-56
2023/04/16 10:29:30;;;;;;;16.95;6.35;;;15.90;71.20;;;;;;10281558;28;20027;-57
2023/04/16 10:34:31;;;;;;;18.80;6.00;;;16.00;71.50;;;;;;10265813;28;20026;-56
2023/04/16 10:39:37;;;;;;;16.05;6.90;;;16.00;71.50;;;;;;10264818;28;20086;-56
2023/04/16 10:44:40;;;;;;;11.63;5.43;;;16.00;71.70;;;;;;10265570;28;20530;-55
2023/04/16 10:49:43;;;;;;;21.83;6.68;;;16.00;71.60;;;;;;10257174;28;20046;-56
2023/04/16 10:54:46;;;;;;;22.45;6.55;;;16.00;71.30;;;;;;10282299;28;20500;-53
2023/04/16 10:59:48;;;;;;;28.27;7.03;;;16.00;72.00;;;;;;10282374;28;20027;-54
2023/04/16 11:04:49;;;;;;;19.02;7.13;;;15.90;71.60;;;;;;10282442;28;20039;-55
2023/04/16 11:10:00;;;;;;;17.15;7.00;;;15.90;71.90;;;;;;10252213;28;20027;-54
2023/04/16 11:15:05;;;;;;;19.25;7.43;;;15.90;72.10;;;;;;10278208;28;20458;-54
2023/04/16 11:20:20;;;;;;;14.77;6.82;;;15.90;72.10;;;;;;10265365;28;20031;-53
2023/04/16 11:25:30;;;;;;;14.70;5.97;;;15.80;72.00;;;;;;10281602;28;20035;-54
2023/04/16 11:30:37;;;;;;;12.05;5.53;;;15.90;71.70;;;;;;10272990;28;20055;-54
2023/04/16 11:35:38;;;;;;;13.20;6.80;;;15.90;71.50;;;;;;10280485;28;20027;-54
2023/04/16 11:40:41;;;;;;;10.30;4.68;;;15.90;71.70;;;;;;10249890;28;20037;-54
2023/04/16 11:46:01;;;;;;;13.77;6.18;;;15.90;71.30;;;;;;10281283;28;20105;-56
2023/04/16 11:51:02;;;;;;;14.10;7.53;;;15.90;71.40;;;;;;10287015;28;20027;-54
2023/04/16 11:56:03;;;;;;;11.15;6.28;;;15.90;71.40;;;;;;10271702;28;20644;-49
2023/04/16 12:01:04;;;;;;;12.20;7.53;;;15.90;71.30;;;;;;10292698;28;20026;-49
2023/04/16 12:06:08;;;;;;;14.35;5.53;;;15.90;71.10;;;;;;10271276;28;20046;-55
2023/04/16 12:11:09;;;;;;;14.10;6.95;;;15.80;71.70;;;;;;10288568;28;20131;-55
2023/04/16 12:16:19;;;;;;;11.68;5.82;;;15.90;71.40;;;;;;10287299;28;20018;-55
2023/04/16 12:21:20;;;;;;;15.25;7.07;;;15.90;71.30;;;;;;10288285;28;20046;-56
2023/04/16 12:26:21;;;;;;;10.82;7.05;;;15.90;71.20;;;;;;10287724;28;20090;-54
2023/04/16 12:31:37;;;;;;;15.27;6.97;;;15.90;71.90;;;;;;10269831;28;20034;-54
2023/04/16 12:36:37;;;;;;;13.70;5.68;;;15.80;71.30;;;;;;10270541;28;20174;-53
2023/04/16 12:41:41;;;;;;;14.05;6.72;;;15.80;71.70;;;;;;10287435;28;20089;-53
2023/04/16 12:46:43;;;;;;;12.55;7.03;;;15.80;71.80;;;;;;10286497;28;20046;-56
2023/04/16 12:51:44;;;;;;;12.95;6.05;;;16.00;71.60;;;;;;10285242;28;20110;-54
2023/04/16 12:56:44;;;;;;;11.30;5.95;;;16.00;71.60;;;;;;10268630;28;20027;-53
2023/04/16 13:01:45;;;;;;;14.13;6.22;;;15.90;71.30;;;;;;10269019;28;20058;-54
2023/04/16 13:06:46;;;;;;;14.85;7.45;;;16.00;72.20;;;;;;10283717;28;20047;-52
2023/04/16 13:11:46;;;;;;;13.65;5.60;;;16.00;71.50;;;;;;10284913;28;20628;-54
2023/04/16 13:16:47;;;;;;;15.80;6.38;;;16.10;71.60;;;;;;10281721;28;20051;-55
2023/04/16 13:21:48;;;;;;;14.90;5.78;;;16.10;71.60;;;;;;10284135;28;20047;-54
2023/04/16 13:26:51;;;;;;;18.27;6.30;;;16.00;71.80;;;;;;10255503;28;20395;-52
2023/04/16 13:31:52;;;;;;;12.15;6.75;;;15.90;72.10;;;;;;10266289;28;20030;-52
2023/04/16 13:36:52;;;;;;;17.98;6.38;;;16.00;72.10;;;;;;10265475;28;20097;-53
2023/04/16 13:41:53;;;;;;;22.92;7.35;;;16.00;72.10;;;;;;10278868;28;20414;-58
2023/04/16 13:46:54;;;;;;;17.30;6.80;;;16.10;72.30;;;;;;10272255;28;20097;-54
2023/04/16 13:51:55;;;;;;;12.95;6.93;;;16.00;71.80;;;;;;10282046;28;20545;-56
2023/04/16 13:56:56;;;;;;;13.10;6.85;;;16.00;71.80;;;;;;10283952;28;20146;-56
2023/04/16 14:01:57;;;;;;;24.67;7.18;;;16.00;71.80;;;;;;10276324;28;20035;-55
2023/04/16 14:06:57;;;;;;;10.95;5.80;;;16.00;71.70;;;;;;10277285;28;20008;-56
2023/04/16 14:11:58;;;;;;;12.68;6.57;;;15.90;71.70;;;;;;10270178;28;20117;-54
2023/04/16 14:16:59;;;;;;;14.55;7.03;;;15.90;71.70;;;;;;10265243;28;20027;-55
2023/04/16 14:22:00;;;;;;;11.90;6.25;;;15.90;71.80;;;;;;10281486;28;20038;-55
2023/04/16 14:27:01;;;;;;;12.52;7.75;;;15.90;71.70;;;;;;10263297;28;20031;-55
2023/04/16 14:32:02;;;;;;;12.68;6.78;;;15.80;71.70;;;;;;10263286;28;20117;-55
2023/04/16 14:37:04;;;;;;;16.80;7.93;;;16.00;71.60;;;;;;10274654;28;20041;-55
2023/04/16 14:42:05;;;;;;;14.40;7.18;;;16.00;71.60;;;;;;10279839;28;20117;-47
2023/04/16 14:47:07;;;;;;;11.27;5.68;;;16.00;71.70;;;;;;10280919;28;20047;-54
2023/04/16 14:52:08;;;;;;;14.27;8.07;;;16.00;71.20;;;;;;10281722;28;20094;-54
2023/04/16 14:57:08;;;;;;;13.38;7.30;;;16.00;71.50;;;;;;10282554;28;20161;-56
2023/04/16 15:02:09;;;;;;;14.98;6.90;;;16.00;71.10;;;;;;10269023;28;20123;-56
2023/04/16 15:07:10;;;;;;;18.35;7.10;;;16.00;71.30;;;;;;10282500;28;20418;-55
2023/04/16 15:12:10;;;;;;;16.27;8.80;;;16.10;71.20;;;;;;10264621;28;20081;-56
2023/04/16 15:17:11;;;;;;;13.52;7.43;;;16.00;71.40;;;;;;10279177;28;20102;-55
2023/04/16 15:22:13;;;;;;;12.13;7.22;;;16.00;71.00;;;;;;10279521;28;20035;-56
2023/04/16 15:27:14;;;;;;;19.98;9.90;;;16.00;71.40;;;;;;10289485;28;20014;-55
2023/04/16 15:32:15;;;;;;;12.98;8.00;;;16.10;71.50;;;;;;10272759;28;20414;-56
2023/04/16 15:37:15;;;;;;;14.48;8.82;;;16.10;70.90;;;;;;10271581;28;20098;-54
2023/04/16 15:42:16;;;;;;;14.23;8.75;;;16.30;74.60;;;;;;10271037;28;20042;-53
2023/04/16 15:47:17;;;;;;;15.18;8.30;;;16.30;74.00;;;;;;10288985;28;20035;-55
2023/04/16 15:52:18;;;;;;;21.33;10.75;;;16.30;72.20;;;;;;10288766;28;20045;-56
2023/04/16 15:57:19;;;;;;;21.45;9.73;;;16.30;71.40;;;;;;10271543;28;20133;-56
2023/04/16 16:02:20;;;;;;;24.20;9.57;;;16.50;73.60;;;;;;10288611;28;20027;-57
2023/04/16 16:07:20;;;;;;;15.98;8.93;;;16.60;74.20;;;;;;10288262;28;20026;-56
2023/04/16 16:12:21;;;;;;;21.55;9.43;;;16.80;73.10;;;;;;10270629;28;20026;-55
2023/04/16 16:17:22;;;;;;;17.33;8.85;;;16.90;71.80;;;;;;10288156;28;20088;-54
2023/04/16 16:22:23;;;;;;;18.38;8.40;;;16.70;72.00;;;;;;10269271;28;20130;-56
2023/04/16 16:27:23;;;;;;;13.68;8.38;;;16.70;72.50;;;;;;10280232;28;20011;-55
2023/04/16 16:32:24;;;;;;;16.40;9.00;;;16.70;72.80;;;;;;10286679;28;20118;-55
2023/04/16 16:37:25;;;;;;;19.48;8.45;;;16.60;73.30;;;;;;10268563;28;20093;-55
2023/04/16 16:42:26;;;;;;;20.15;8.45;;;16.50;72.80;;;;;;10286647;28;20045;-54
2023/04/16 16:47:27;;;;;;;15.80;9.00;;;16.40;73.10;;;;;;10286304;28;20042;-55
2023/04/16 16:52:27;;;;;;;19.67;9.43;;;16.20;73.00;;;;;;10286215;28;20118;-56
2023/04/16 16:57:28;;;;;;;12.63;7.45;;;16.20;73.20;;;;;;10286024;28;20050;-57
2023/04/16 17:02:28;;;;;;;14.75;8.68;;;16.10;73.10;;;;;;10285366;28;20423;-54
2023/04/16 17:07:29;;;;;;;12.48;8.45;;;16.10;73.10;;;;;;10285635;28;20091;-55
2023/04/16 17:12:30;;;;;;;15.55;8.18;;;16.10;73.10;;;;;;10281587;28;20131;-55
2023/04/16 17:17:31;;;;;;;15.15;8.10;;;16.10;73.00;;;;;;10284779;28;20103;-52
2023/04/16 17:22:32;;;;;;;16.45;9.15;;;16.20;73.00;;;;;;10283927;28;20042;-55
2023/04/16 17:27:33;;;;;;;15.13;7.13;;;16.20;73.10;;;;;;10285927;28;20019;-56
2023/04/16 17:32:33;;;;;;;16.60;7.18;;;16.30;72.90;;;;;;10269121;28;20031;-57
2023/04/16 17:37:34;;;;;;;16.30;8.70;;;16.20;73.10;;;;;;10276503;28;20045;-57
2023/04/16 17:42:35;;;;;;;16.45;8.20;;;16.20;72.90;;;;;;10266904;28;20158;-56
2023/04/16 17:47:36;;;;;;;14.68;8.10;;;16.10;72.90;;;;;;10284250;28;20043;-55
2023/04/16 17:52:37;;;;;;;13.10;6.90;;;16.10;72.80;;;;;;10285342;28;20378;-57
2023/04/16 17:57:38;;;;;;;17.20;8.35;;;16.10;72.80;;;;;;10284837;28;20115;-57
2023/04/16 18:02:42;;;;;;;16.33;8.65;;;16.10;72.70;;;;;;10284545;28;20118;-56
2023/04/16 18:07:43;;;;;;;14.65;6.65;;;16.10;72.80;;;;;;10284049;28;20081;-57
2023/04/16 18:12:43;;;;;;;12.30;7.03;;;16.10;72.80;;;;;;10281714;28;20465;-57
2023/04/16 18:17:44;;;;;;;14.88;7.40;;;16.10;72.90;;;;;;10265781;28;20704;-56
2023/04/16 18:22:45;;;;;;;17.50;9.05;;;16.10;72.90;;;;;;10282474;28;20190;-57
2023/04/16 18:27:48;;;;;;;15.38;8.80;;;16.10;72.80;;;;;;10282547;28;20015;-58
2023/04/16 18:32:49;;;;;;;12.45;8.25;;;16.10;72.80;;;;;;10282753;28;20059;-57
2023/04/16 18:37:49;;;;;;;14.35;7.28;;;16.10;72.80;;;;;;10281588;28;20466;-56
2023/04/16 18:42:50;;;;;;;13.13;7.65;;;16.10;72.80;;;;;;10282548;28;20031;-56
2023/04/16 18:47:51;;;;;;;14.63;7.35;;;16.00;72.70;;;;;;10281635;28;20141;-55
2023/04/16 18:52:51;;;;;;;9.63;6.35;;;16.00;72.70;;;;;;10281025;28;20054;-56
2023/04/16 18:57:53;;;;;;;11.93;8.15;;;16.10;72.70;;;;;;10265385;28;20022;-56
2023/04/16 19:02:54;;;;;;;12.23;6.88;;;16.10;72.80;;;;;;10290035;28;20035;-57
2023/04/16 19:07:55;;;;;;;10.75;6.82;;;16.10;72.80;;;;;;10269276;28;20027;-57
2023/04/16 19:12:56;;;;;;;11.30;7.40;;;16.00;72.70;;;;;;10289698;28;20101;-56
2023/04/16 19:17:57;;;;;;;9.93;6.60;;;16.00;73.20;;;;;;10290229;28;20037;-56
2023/04/16 19:22:58;;;;;;;9.23;6.38;;;15.90;73.30;;;;;;10289727;28;20061;-57
2023/04/16 19:27:58;;;;;;;9.20;6.80;;;15.90;73.30;;;;;;10272199;28;20577;-57
2023/04/16 19:32:59;;;;;;;11.02;7.53;;;16.00;73.40;;;;;;10289363;28;20031;-56
2023/04/16 19:38:00;;;;;;;15.23;7.97;;;16.00;72.80;;;;;;10289810;28;20050;-57
2023/04/16 19:43:01;;;;;;;14.50;7.55;;;15.90;72.90;;;;;;10271456;28;20130;-57
2023/04/16 19:48:01;;;;;;;7.70;5.88;;;15.80;72.90;;;;;;10286825;28;20587;-56
2023/04/16 19:53:02;;;;;;;14.05;6.72;;;15.80;73.00;;;;;;10248711;28;20050;-57
2023/04/16 19:58:05;;;;;;;8.10;6.00;;;15.80;73.10;;;;;;10282500;28;20106;-57
2023/04/16 20:03:06;;;;;;;11.20;6.72;;;15.70;73.10;;;;;;10268142;28;20656;-56
2023/04/16 20:08:07;;;;;;;12.57;7.30;;;15.70;73.10;;;;;;10286603;28;20089;-57
2023/04/16 20:13:10;;;;;;;8.02;6.53;;;15.70;73.10;;;;;;10286208;28;20134;-56
2023/04/16 20:18:12;;;;;;;9.65;6.45;;;15.70;73.00;;;;;;10287185;28;20026;-57
2023/04/16 20:23:13;;;;;;;7.70;6.43;;;15.70;73.00;;;;;;10269710;28;20085;-57
2023/04/16 20:28:15;;;;;;;6.75;5.63;;;15.70;73.00;;;;;;10287994;28;20470;-57
2023/04/16 20:33:16;;;;;;;9.50;6.57;;;15.60;72.90;;;;;;10287822;28;20477;-57
2023/04/16 20:38:22;;;;;;;10.77;7.07;;;15.60;72.80;;;;;;10269548;28;20022;-57
2023/04/16 20:43:24;;;;;;;9.70;6.65;;;15.60;72.80;;;;;;10287417;28;20053;-56
2023/04/16 20:48:25;;;;;;;7.53;5.88;;;15.60;72.80;;;;;;10269785;28;20050;-55
2023/04/16 20:53:26;;;;;;;11.85;7.72;;;15.60;72.70;;;;;;10287342;28;20046;-56
2023/04/16 20:58:28;;;;;;;7.88;5.57;;;15.60;72.70;;;;;;10287303;28;20027;-56
2023/04/16 21:03:29;;;;;;;9.55;6.03;;;15.50;72.60;;;;;;10286162;28;20031;-57
2023/04/16 21:08:30;;;;;;;8.40;6.30;;;15.50;72.60;;;;;;10286852;28;20806;-56
2023/04/16 21:13:30;;;;;;;7.97;6.20;;;15.60;72.50;;;;;;10286508;28;20113;-57
2023/04/16 21:18:31;;;;;;;9.55;6.35;;;15.50;72.60;;;;;;10286258;28;20050;-56
2023/04/16 21:23:31;;;;;;;8.88;6.68;;;15.50;72.40;;;;;;10285681;28;20070;-57
2023/04/16 21:28:32;;;;;;;8.50;5.63;;;15.50;72.30;;;;;;10286012;28;20098;-57
2023/04/16 21:33:33;;;;;;;7.30;5.95;;;15.50;72.40;;;;;;10267622;28;20065;-57
2023/04/16 21:38:34;;;;;;;9.48;6.32;;;15.50;72.30;;;;;;10284857;28;20102;-56
2023/04/16 21:43:34;;;;;;;8.45;6.82;;;15.50;72.50;;;;;;10284416;28;20039;-56
2023/04/16 21:48:35;;;;;;;9.80;7.00;;;15.50;72.40;;;;;;10284854;28;20133;-56
2023/04/16 21:53:37;;;;;;;7.75;6.00;;;15.50;72.40;;;;;;10267751;28;20054;-56
2023/04/16 21:58:38;;;;;;;8.38;6.35;;;15.50;72.30;;;;;;10284289;28;20033;-57
2023/04/16 22:03:38;;;;;;;9.32;6.45;;;15.50;72.30;;;;;;10274525;28;20031;-57
2023/04/16 22:08:39;;;;;;;8.85;6.88;;;15.40;72.30;;;;;;10284133;28;20019;-57
2023/04/16 22:13:41;;;;;;;8.10;6.43;;;15.50;72.20;;;;;;10284139;28;20675;-56
2023/04/16 22:18:41;;;;;;;9.32;7.03;;;15.40;72.20;;;;;;10284462;28;20018;-56
2023/04/16 22:23:44;;;;;;;10.75;6.80;;;15.40;72.20;;;;;;10283756;28;20027;-57
2023/04/16 22:28:45;;;;;;;7.20;6.38;;;15.40;72.10;;;;;;10283491;28;20074;-56
2023/04/16 22:33:46;;;;;;;8.23;7.00;;;15.40;72.10;;;;;;10282702;28;20050;-56
2023/04/16 22:38:47;;;;;;;8.23;7.38;;;15.40;72.00;;;;;;10283795;28;20070;-56
2023/04/16 22:43:47;;;;;;;9.35;7.00;;;15.40;72.10;;;;;;10283136;28;20113;-56
2023/04/16 22:48:49;;;;;;;8.90;6.00;;;15.40;72.10;;;;;;10281956;28;20043;-57
2023/04/16 22:53:50;;;;;;;10.82;7.05;;;15.40;72.00;;;;;;10283315;28;20023;-57
2023/04/16 22:58:51;;;;;;;9.60;7.25;;;15.40;72.10;;;;;;10283404;28;20023;-57
2023/04/16 23:03:52;;;;;;;7.55;5.70;;;15.40;72.00;;;;;;10283434;28;20041;-56
2023/04/16 23:08:53;;;;;;;10.52;7.20;;;15.30;72.00;;;;;;10282909;28;20157;-57
2023/04/16 23:13:53;;;;;;;10.57;7.32;;;15.30;71.90;;;;;;10281739;28;20019;-57
2023/04/16 23:18:54;;;;;;;8.23;6.60;;;15.40;71.90;;;;;;10282869;28;20611;-57
2023/04/16 23:23:55;;;;;;;8.77;7.32;;;15.30;71.90;;;;;;10282740;28;20080;-56
2023/04/16 23:28:56;;;;;;;8.75;6.38;;;15.30;71.90;;;;;;10282739;28;20012;-55
2023/04/16 23:33:57;;;;;;;9.50;7.35;;;15.30;71.80;;;;;;10264757;28;20486;-57
2023/04/16 23:38:57;;;;;;;10.93;6.80;;;15.30;71.80;;;;;;10282106;28;20031;-56
2023/04/16 23:43:58;;;;;;;9.52;6.90;;;15.30;71.80;;;;;;10283367;28;20636;-56
2023/04/16 23:48:59;;;;;;;8.50;6.55;;;15.30;71.80;;;;;;10289427;28;20074;-55
2023/04/16 23:53:59;;;;;;;9.20;7.50;;;15.30;71.70;;;;;;10271914;28;20111;-57
2023/04/16 23:59:00;;;;;;;10.60;7.30;;;15.30;71.70;;;;;;10289365;28;20017;-55
